sensor_id;sensor_type;location;lat;lon;timestamp;P1;durP1;ratioP1;P2;durP2;ratioP2
69310;SDS011;56430;48.154;16.458;2022-11-20T00:00:24;22.25;;;8.23;;
69310;SDS011;56430;48.154;16.458;2022-11-20T00:02:51;18.50;;;7.10;;
69310;SDS011;56430;48.154;16.458;2022-11-20T00:05:18;18.60;;;7.47;;
69310;SDS011;56430;48.154;16.458;2022-11-20T00:07:47;18.98;;;7.15;;
69310;SDS011;56430;48.154;16.458;2022-11-20T00:10:15;17.50;;;7.47;;
69310;SDS011;56430;48.154;16.458;2022-11-20T00:12:42;22.15;;;7.85;;
69310;SDS011;56430;48.154;16.458;2022-11-20T00:15:09;20.83;;;7.70;;
69310;SDS011;56430;48.154;16.458;2022-11-20T00:17:37;21.10;;;8.27;;
69310;SDS011;56430;48.154;16.458;2022-11-20T00:20:04;21.20;;;7.95;;
69310;SDS011;56430;48.154;16.458;2022-11-20T00:22:32;20.77;;;7.73;;
69310;SDS011;56430;48.154;16.458;2022-11-20T00:25:01;17.83;;;7.40;;
69310;SDS011;56430;48.154;16.458;2022-11-20T00:27:28;20.02;;;7.85;;
69310;SDS011;56430;48.154;16.458;2022-11-20T00:29:55;19.65;;;7.75;;
69310;SDS011;56430;48.154;16.458;2022-11-20T00:32:22;22.73;;;8.30;;
69310;SDS011;56430;48.154;16.458;2022-11-20T00:34:52;21.67;;;7.20;;
69310;SDS011;56430;48.154;16.458;2022-11-20T00:37:19;19.80;;;7.63;;
69310;SDS011;56430;48.154;16.458;2022-11-20T00:39:47;19.95;;;7.55;;
69310;SDS011;56430;48.154;16.458;2022-11-20T00:42:15;22.83;;;8.10;;
69310;SDS011;56430;48.154;16.458;2022-11-20T00:44:42;23.23;;;8.23;;
69310;SDS011;56430;48.154;16.458;2022-11-20T00:47:10;18.33;;;7.10;;
69310;SDS011;56430;48.154;16.458;2022-11-20T00:49:37;20.05;;;7.63;;
69310;SDS011;56430;48.154;16.458;2022-11-20T00:52:04;19.33;;;7.38;;
69310;SDS011;56430;48.154;16.458;2022-11-20T00:54:31;21.20;;;7.10;;
69310;SDS011;56430;48.154;16.458;2022-11-20T00:56:58;20.90;;;7.63;;
69310;SDS011;56430;48.154;16.458;2022-11-20T00:59:27;18.70;;;7.23;;
69310;SDS011;56430;48.154;16.458;2022-11-20T01:01:54;22.45;;;7.63;;
69310;SDS011;56430;48.154;16.458;2022-11-20T01:04:21;20.73;;;7.53;;
69310;SDS011;56430;48.154;16.458;2022-11-20T01:06:49;19.02;;;7.78;;
69310;SDS011;56430;48.154;16.458;2022-11-20T01:09:16;21.50;;;7.55;;
69310;SDS011;56430;48.154;16.458;2022-11-20T01:11:43;22.70;;;7.60;;
69310;SDS011;56430;48.154;16.458;2022-11-20T01:14:12;22.80;;;8.07;;
69310;SDS011;56430;48.154;16.458;2022-11-20T01:16:43;20.63;;;7.97;;
69310;SDS011;56430;48.154;16.458;2022-11-20T01:19:13;19.50;;;7.22;;
69310;SDS011;56430;48.154;16.458;2022-11-20T01:21:42;20.05;;;7.45;;
69310;SDS011;56430;48.154;16.458;2022-11-20T01:24:11;21.97;;;8.03;;
69310;SDS011;56430;48.154;16.458;2022-11-20T01:26:41;20.55;;;7.82;;
69310;SDS011;56430;48.154;16.458;2022-11-20T01:29:10;19.17;;;7.88;;
69310;SDS011;56430;48.154;16.458;2022-11-20T01:31:40;19.60;;;7.43;;
69310;SDS011;56430;48.154;16.458;2022-11-20T01:34:10;16.80;;;7.28;;
69310;SDS011;56430;48.154;16.458;2022-11-20T01:36:39;18.83;;;7.60;;
69310;SDS011;56430;48.154;16.458;2022-11-20T01:39:09;18.70;;;7.70;;
69310;SDS011;56430;48.154;16.458;2022-11-20T01:41:38;20.05;;;7.70;;
69310;SDS011;56430;48.154;16.458;2022-11-20T01:47:31;18.20;;;7.13;;
69310;SDS011;56430;48.154;16.458;2022-11-20T01:50:02;22.60;;;7.90;;
69310;SDS011;56430;48.154;16.458;2022-11-20T01:52:32;20.42;;;8.23;;
69310;SDS011;56430;48.154;16.458;2022-11-20T01:55:03;22.05;;;8.20;;
69310;SDS011;56430;48.154;16.458;2022-11-20T01:57:32;20.80;;;7.38;;
69310;SDS011;56430;48.154;16.458;2022-11-20T02:00:03;20.45;;;8.18;;
69310;SDS011;56430;48.154;16.458;2022-11-20T02:02:36;19.23;;;7.87;;
69310;SDS011;56430;48.154;16.458;2022-11-20T02:05:09;20.95;;;7.80;;
69310;SDS011;56430;48.154;16.458;2022-11-20T02:07:40;23.65;;;7.60;;
69310;SDS011;56430;48.154;16.458;2022-11-20T02:10:08;25.65;;;9.05;;
69310;SDS011;56430;48.154;16.458;2022-11-20T02:12:35;20.33;;;8.05;;
69310;SDS011;56430;48.154;16.458;2022-11-20T02:15:20;22.97;;;8.73;;
69310;SDS011;56430;48.154;16.458;2022-11-20T02:17:49;21.17;;;7.93;;
69310;SDS011;56430;48.154;16.458;2022-11-20T02:20:16;20.60;;;8.23;;
69310;SDS011;56430;48.154;16.458;2022-11-20T02:22:45;23.00;;;8.35;;
69310;SDS011;56430;48.154;16.458;2022-11-20T02:25:18;21.05;;;7.95;;
69310;SDS011;56430;48.154;16.458;2022-11-20T02:27:46;21.83;;;8.50;;
69310;SDS011;56430;48.154;16.458;2022-11-20T02:30:13;25.95;;;9.13;;
69310;SDS011;56430;48.154;16.458;2022-11-20T02:32:41;23.83;;;8.90;;
69310;SDS011;56430;48.154;16.458;2022-11-20T02:35:09;23.23;;;8.20;;
69310;SDS011;56430;48.154;16.458;2022-11-20T02:37:38;24.92;;;8.23;;
69310;SDS011;56430;48.154;16.458;2022-11-20T02:40:07;22.00;;;8.23;;
69310;SDS011;56430;48.154;16.458;2022-11-20T02:42:36;18.08;;;7.13;;
69310;SDS011;56430;48.154;16.458;2022-11-20T02:45:04;25.80;;;8.70;;
69310;SDS011;56430;48.154;16.458;2022-11-20T02:47:32;20.20;;;7.35;;
69310;SDS011;56430;48.154;16.458;2022-11-20T02:49:59;20.48;;;7.68;;
69310;SDS011;56430;48.154;16.458;2022-11-20T02:52:27;17.53;;;7.20;;
69310;SDS011;56430;48.154;16.458;2022-11-20T02:54:54;23.23;;;8.52;;
69310;SDS011;56430;48.154;16.458;2022-11-20T02:57:21;24.17;;;8.70;;
69310;SDS011;56430;48.154;16.458;2022-11-20T02:59:50;25.45;;;8.40;;
69310;SDS011;56430;48.154;16.458;2022-11-20T03:02:17;22.83;;;8.27;;
69310;SDS011;56430;48.154;16.458;2022-11-20T03:04:44;22.53;;;8.27;;
69310;SDS011;56430;48.154;16.458;2022-11-20T03:07:11;25.25;;;8.85;;
69310;SDS011;56430;48.154;16.458;2022-11-20T03:09:38;21.70;;;8.30;;
69310;SDS011;56430;48.154;16.458;2022-11-20T03:12:06;21.00;;;7.50;;
69310;SDS011;56430;48.154;16.458;2022-11-20T03:14:34;19.38;;;7.80;;
69310;SDS011;56430;48.154;16.458;2022-11-20T03:17:02;23.57;;;8.40;;
69310;SDS011;56430;48.154;16.458;2022-11-20T03:19:30;21.98;;;7.60;;
69310;SDS011;56430;48.154;16.458;2022-11-20T03:21:58;22.98;;;8.55;;
69310;SDS011;56430;48.154;16.458;2022-11-20T03:24:25;23.80;;;8.85;;
69310;SDS011;56430;48.154;16.458;2022-11-20T03:26:53;23.15;;;8.48;;
69310;SDS011;56430;48.154;16.458;2022-11-20T03:29:20;21.87;;;8.03;;
69310;SDS011;56430;48.154;16.458;2022-11-20T03:31:47;24.33;;;8.35;;
69310;SDS011;56430;48.154;16.458;2022-11-20T03:34:17;20.00;;;8.00;;
69310;SDS011;56430;48.154;16.458;2022-11-20T03:36:47;25.00;;;8.85;;
69310;SDS011;56430;48.154;16.458;2022-11-20T03:39:14;25.00;;;8.98;;
69310;SDS011;56430;48.154;16.458;2022-11-20T03:41:41;25.00;;;8.03;;
69310;SDS011;56430;48.154;16.458;2022-11-20T03:44:09;22.65;;;8.45;;
69310;SDS011;56430;48.154;16.458;2022-11-20T03:46:37;26.23;;;9.77;;
69310;SDS011;56430;48.154;16.458;2022-11-20T03:49:05;22.40;;;8.52;;
69310;SDS011;56430;48.154;16.458;2022-11-20T03:51:34;20.52;;;7.60;;
69310;SDS011;56430;48.154;16.458;2022-11-20T03:54:02;25.00;;;8.97;;
69310;SDS011;56430;48.154;16.458;2022-11-20T03:56:31;22.38;;;7.50;;
69310;SDS011;56430;48.154;16.458;2022-11-20T03:59:00;25.27;;;8.65;;
69310;SDS011;56430;48.154;16.458;2022-11-20T04:01:28;21.40;;;8.55;;
69310;SDS011;56430;48.154;16.458;2022-11-20T04:03:57;22.95;;;8.48;;
69310;SDS011;56430;48.154;16.458;2022-11-20T04:06:25;23.43;;;8.40;;
69310;SDS011;56430;48.154;16.458;2022-11-20T04:08:55;20.23;;;8.05;;
69310;SDS011;56430;48.154;16.458;2022-11-20T04:11:23;21.95;;;7.90;;
69310;SDS011;56430;48.154;16.458;2022-11-20T04:13:53;20.42;;;7.55;;
69310;SDS011;56430;48.154;16.458;2022-11-20T04:16:22;23.58;;;7.97;;
69310;SDS011;56430;48.154;16.458;2022-11-20T04:18:51;24.47;;;7.77;;
69310;SDS011;56430;48.154;16.458;2022-11-20T04:21:19;25.08;;;8.77;;
69310;SDS011;56430;48.154;16.458;2022-11-20T04:23:47;25.33;;;8.93;;
69310;SDS011;56430;48.154;16.458;2022-11-20T04:26:15;22.58;;;8.82;;
69310;SDS011;56430;48.154;16.458;2022-11-20T04:28:42;24.20;;;9.20;;
69310;SDS011;56430;48.154;16.458;2022-11-20T04:31:11;20.37;;;8.17;;
69310;SDS011;56430;48.154;16.458;2022-11-20T04:33:39;26.75;;;9.07;;
69310;SDS011;56430;48.154;16.458;2022-11-20T04:36:07;23.02;;;8.50;;
69310;SDS011;56430;48.154;16.458;2022-11-20T04:38:38;25.88;;;9.32;;
69310;SDS011;56430;48.154;16.458;2022-11-20T04:41:06;23.75;;;8.48;;
69310;SDS011;56430;48.154;16.458;2022-11-20T04:43:35;22.17;;;7.93;;
69310;SDS011;56430;48.154;16.458;2022-11-20T04:46:02;25.27;;;8.20;;
69310;SDS011;56430;48.154;16.458;2022-11-20T04:48:34;25.58;;;9.05;;
69310;SDS011;56430;48.154;16.458;2022-11-20T04:51:02;22.67;;;9.00;;
69310;SDS011;56430;48.154;16.458;2022-11-20T04:53:29;22.92;;;8.13;;
69310;SDS011;56430;48.154;16.458;2022-11-20T04:55:59;22.00;;;8.87;;
69310;SDS011;56430;48.154;16.458;2022-11-20T04:58:29;24.52;;;8.60;;
69310;SDS011;56430;48.154;16.458;2022-11-20T05:01:02;24.17;;;8.80;;
69310;SDS011;56430;48.154;16.458;2022-11-20T05:03:30;23.67;;;8.52;;
69310;SDS011;56430;48.154;16.458;2022-11-20T05:05:59;23.55;;;9.02;;
69310;SDS011;56430;48.154;16.458;2022-11-20T05:08:26;24.43;;;8.40;;
69310;SDS011;56430;48.154;16.458;2022-11-20T05:10:54;19.95;;;7.78;;
69310;SDS011;56430;48.154;16.458;2022-11-20T05:13:26;23.35;;;8.77;;
69310;SDS011;56430;48.154;16.458;2022-11-20T05:15:53;21.77;;;8.40;;
69310;SDS011;56430;48.154;16.458;2022-11-20T05:18:22;22.90;;;8.43;;
69310;SDS011;56430;48.154;16.458;2022-11-20T05:20:54;20.43;;;8.33;;
69310;SDS011;56430;48.154;16.458;2022-11-20T05:23:21;19.60;;;7.75;;
69310;SDS011;56430;48.154;16.458;2022-11-20T05:25:51;20.70;;;7.78;;
69310;SDS011;56430;48.154;16.458;2022-11-20T05:28:19;21.42;;;8.73;;
69310;SDS011;56430;48.154;16.458;2022-11-20T05:30:46;22.33;;;8.38;;
69310;SDS011;56430;48.154;16.458;2022-11-20T05:33:13;22.40;;;7.80;;
69310;SDS011;56430;48.154;16.458;2022-11-20T05:35:42;25.55;;;8.48;;
69310;SDS011;56430;48.154;16.458;2022-11-20T05:38:09;23.75;;;8.45;;
69310;SDS011;56430;48.154;16.458;2022-11-20T05:40:36;25.63;;;9.32;;
69310;SDS011;56430;48.154;16.458;2022-11-20T05:43:03;23.05;;;8.40;;
69310;SDS011;56430;48.154;16.458;2022-11-20T05:45:31;20.93;;;7.70;;
69310;SDS011;56430;48.154;16.458;2022-11-20T05:47:58;23.50;;;8.88;;
69310;SDS011;56430;48.154;16.458;2022-11-20T05:50:26;24.60;;;8.23;;
69310;SDS011;56430;48.154;16.458;2022-11-20T05:52:55;24.45;;;9.38;;
69310;SDS011;56430;48.154;16.458;2022-11-20T05:55:24;24.33;;;8.65;;
69310;SDS011;56430;48.154;16.458;2022-11-20T05:57:52;20.43;;;8.43;;
69310;SDS011;56430;48.154;16.458;2022-11-20T06:00:20;23.42;;;8.70;;
69310;SDS011;56430;48.154;16.458;2022-11-20T06:02:47;22.52;;;8.77;;
69310;SDS011;56430;48.154;16.458;2022-11-20T06:05:14;22.58;;;7.78;;
69310;SDS011;56430;48.154;16.458;2022-11-20T06:07:42;22.00;;;8.02;;
69310;SDS011;56430;48.154;16.458;2022-11-20T06:10:11;19.77;;;8.10;;
69310;SDS011;56430;48.154;16.458;2022-11-20T06:12:41;20.60;;;8.05;;
69310;SDS011;56430;48.154;16.458;2022-11-20T06:15:09;23.73;;;8.85;;
69310;SDS011;56430;48.154;16.458;2022-11-20T06:17:36;18.63;;;7.45;;
69310;SDS011;56430;48.154;16.458;2022-11-20T06:20:04;19.85;;;7.97;;
69310;SDS011;56430;48.154;16.458;2022-11-20T06:22:32;22.97;;;7.90;;
69310;SDS011;56430;48.154;16.458;2022-11-20T06:24:59;23.75;;;8.55;;
69310;SDS011;56430;48.154;16.458;2022-11-20T06:27:28;21.77;;;8.20;;
69310;SDS011;56430;48.154;16.458;2022-11-20T06:29:55;22.02;;;7.95;;
69310;SDS011;56430;48.154;16.458;2022-11-20T06:32:22;18.77;;;7.65;;
69310;SDS011;56430;48.154;16.458;2022-11-20T06:34:49;19.50;;;8.07;;
69310;SDS011;56430;48.154;16.458;2022-11-20T06:37:16;21.90;;;8.43;;
69310;SDS011;56430;48.154;16.458;2022-11-20T06:39:44;22.85;;;8.73;;
69310;SDS011;56430;48.154;16.458;2022-11-20T06:42:11;23.45;;;8.20;;
69310;SDS011;56430;48.154;16.458;2022-11-20T06:44:40;23.73;;;7.82;;
69310;SDS011;56430;48.154;16.458;2022-11-20T06:47:07;20.20;;;7.77;;
69310;SDS011;56430;48.154;16.458;2022-11-20T06:49:34;20.25;;;7.10;;
69310;SDS011;56430;48.154;16.458;2022-11-20T06:52:02;26.00;;;9.23;;
69310;SDS011;56430;48.154;16.458;2022-11-20T06:54:30;20.90;;;7.80;;
69310;SDS011;56430;48.154;16.458;2022-11-20T06:56:57;24.27;;;8.10;;
69310;SDS011;56430;48.154;16.458;2022-11-20T06:59:24;24.97;;;9.50;;
69310;SDS011;56430;48.154;16.458;2022-11-20T07:01:53;20.63;;;7.50;;
69310;SDS011;56430;48.154;16.458;2022-11-20T07:04:20;22.08;;;8.48;;
69310;SDS011;56430;48.154;16.458;2022-11-20T07:06:47;23.70;;;7.32;;
69310;SDS011;56430;48.154;16.458;2022-11-20T07:09:15;23.05;;;8.18;;
69310;SDS011;56430;48.154;16.458;2022-11-20T07:11:42;20.00;;;7.60;;
69310;SDS011;56430;48.154;16.458;2022-11-20T07:14:09;23.67;;;9.13;;
69310;SDS011;56430;48.154;16.458;2022-11-20T07:16:36;26.67;;;8.52;;
69310;SDS011;56430;48.154;16.458;2022-11-20T07:19:05;20.55;;;8.00;;
69310;SDS011;56430;48.154;16.458;2022-11-20T07:21:32;23.52;;;9.07;;
69310;SDS011;56430;48.154;16.458;2022-11-20T07:24:01;26.93;;;9.17;;
69310;SDS011;56430;48.154;16.458;2022-11-20T07:26:28;26.05;;;9.57;;
69310;SDS011;56430;48.154;16.458;2022-11-20T07:28:58;26.45;;;9.68;;
69310;SDS011;56430;48.154;16.458;2022-11-20T07:31:25;25.08;;;9.20;;
69310;SDS011;56430;48.154;16.458;2022-11-20T07:33:53;25.63;;;9.23;;
69310;SDS011;56430;48.154;16.458;2022-11-20T07:36:22;27.70;;;10.17;;
69310;SDS011;56430;48.154;16.458;2022-11-20T07:38:49;22.08;;;9.00;;
69310;SDS011;56430;48.154;16.458;2022-11-20T07:41:16;23.15;;;8.75;;
69310;SDS011;56430;48.154;16.458;2022-11-20T07:43:43;23.33;;;9.00;;
69310;SDS011;56430;48.154;16.458;2022-11-20T07:46:10;25.40;;;9.82;;
69310;SDS011;56430;48.154;16.458;2022-11-20T07:48:37;27.93;;;9.93;;
69310;SDS011;56430;48.154;16.458;2022-11-20T07:51:05;26.48;;;9.23;;
69310;SDS011;56430;48.154;16.458;2022-11-20T07:53:33;24.77;;;9.57;;
69310;SDS011;56430;48.154;16.458;2022-11-20T07:56:01;24.13;;;8.77;;
69310;SDS011;56430;48.154;16.458;2022-11-20T07:58:28;24.10;;;9.55;;
69310;SDS011;56430;48.154;16.458;2022-11-20T08:01:02;25.00;;;9.63;;
69310;SDS011;56430;48.154;16.458;2022-11-20T08:03:30;25.42;;;10.57;;
69310;SDS011;56430;48.154;16.458;2022-11-20T08:05:58;25.63;;;9.63;;
69310;SDS011;56430;48.154;16.458;2022-11-20T08:08:26;26.50;;;9.57;;
69310;SDS011;56430;48.154;16.458;2022-11-20T08:10:54;24.02;;;8.48;;
69310;SDS011;56430;48.154;16.458;2022-11-20T08:13:43;24.27;;;9.03;;
69310;SDS011;56430;48.154;16.458;2022-11-20T08:16:29;19.27;;;8.23;;
69310;SDS011;56430;48.154;16.458;2022-11-20T08:18:56;23.08;;;9.15;;
69310;SDS011;56430;48.154;16.458;2022-11-20T08:21:23;26.05;;;9.38;;
69310;SDS011;56430;48.154;16.458;2022-11-20T08:23:50;25.55;;;9.07;;
69310;SDS011;56430;48.154;16.458;2022-11-20T08:26:19;24.53;;;9.10;;
69310;SDS011;56430;48.154;16.458;2022-11-20T08:28:47;29.30;;;9.55;;
69310;SDS011;56430;48.154;16.458;2022-11-20T08:31:14;24.02;;;9.00;;
69310;SDS011;56430;48.154;16.458;2022-11-20T08:33:42;25.67;;;9.38;;
69310;SDS011;56430;48.154;16.458;2022-11-20T08:36:09;27.65;;;9.65;;
69310;SDS011;56430;48.154;16.458;2022-11-20T08:38:36;24.67;;;9.40;;
69310;SDS011;56430;48.154;16.458;2022-11-20T08:41:04;25.85;;;9.20;;
69310;SDS011;56430;48.154;16.458;2022-11-20T08:43:52;26.20;;;9.52;;
69310;SDS011;56430;48.154;16.458;2022-11-20T08:46:21;25.05;;;8.93;;
69310;SDS011;56430;48.154;16.458;2022-11-20T08:48:48;23.65;;;9.00;;
69310;SDS011;56430;48.154;16.458;2022-11-20T08:51:16;24.93;;;9.50;;
69310;SDS011;56430;48.154;16.458;2022-11-20T08:53:43;26.13;;;9.75;;
69310;SDS011;56430;48.154;16.458;2022-11-20T08:56:10;25.17;;;9.95;;
69310;SDS011;56430;48.154;16.458;2022-11-20T08:58:38;25.17;;;9.65;;
69310;SDS011;56430;48.154;16.458;2022-11-20T09:01:09;25.40;;;9.63;;
69310;SDS011;56430;48.154;16.458;2022-11-20T09:03:36;27.53;;;9.73;;
69310;SDS011;56430;48.154;16.458;2022-11-20T09:06:04;25.77;;;9.70;;
69310;SDS011;56430;48.154;16.458;2022-11-20T09:08:33;26.75;;;10.05;;
69310;SDS011;56430;48.154;16.458;2022-11-20T09:11:01;25.20;;;9.65;;
69310;SDS011;56430;48.154;16.458;2022-11-20T09:13:29;25.70;;;9.65;;
69310;SDS011;56430;48.154;16.458;2022-11-20T09:15:57;27.10;;;10.60;;
69310;SDS011;56430;48.154;16.458;2022-11-20T09:18:27;25.52;;;9.93;;
69310;SDS011;56430;48.154;16.458;2022-11-20T09:20:56;30.95;;;11.00;;
69310;SDS011;56430;48.154;16.458;2022-11-20T09:23:23;25.92;;;9.95;;
69310;SDS011;56430;48.154;16.458;2022-11-20T09:25:50;28.48;;;10.27;;
69310;SDS011;56430;48.154;16.458;2022-11-20T09:28:18;27.30;;;10.70;;
69310;SDS011;56430;48.154;16.458;2022-11-20T09:30:45;27.80;;;10.80;;
69310;SDS011;56430;48.154;16.458;2022-11-20T09:33:12;30.05;;;10.52;;
69310;SDS011;56430;48.154;16.458;2022-11-20T09:35:41;26.88;;;9.90;;
69310;SDS011;56430;48.154;16.458;2022-11-20T09:38:10;29.65;;;10.73;;
69310;SDS011;56430;48.154;16.458;2022-11-20T09:40:38;29.87;;;11.37;;
69310;SDS011;56430;48.154;16.458;2022-11-20T09:43:09;28.98;;;10.70;;
69310;SDS011;56430;48.154;16.458;2022-11-20T09:45:44;21.83;;;8.02;;
69310;SDS011;56430;48.154;16.458;2022-11-20T09:48:20;27.08;;;9.40;;
69310;SDS011;56430;48.154;16.458;2022-11-20T09:50:56;26.13;;;10.35;;
69310;SDS011;56430;48.154;16.458;2022-11-20T09:53:29;31.37;;;11.27;;
69310;SDS011;56430;48.154;16.458;2022-11-20T09:56:00;30.83;;;10.98;;
69310;SDS011;56430;48.154;16.458;2022-11-20T09:58:29;28.25;;;10.93;;
69310;SDS011;56430;48.154;16.458;2022-11-20T10:01:01;26.80;;;10.32;;
69310;SDS011;56430;48.154;16.458;2022-11-20T10:03:37;29.92;;;10.13;;
69310;SDS011;56430;48.154;16.458;2022-11-20T10:06:11;27.33;;;9.57;;
69310;SDS011;56430;48.154;16.458;2022-11-20T10:08:42;27.98;;;10.95;;
69310;SDS011;56430;48.154;16.458;2022-11-20T10:11:12;29.88;;;10.40;;
69310;SDS011;56430;48.154;16.458;2022-11-20T10:13:45;29.55;;;10.52;;
69310;SDS011;56430;48.154;16.458;2022-11-20T10:16:21;32.70;;;11.18;;
69310;SDS011;56430;48.154;16.458;2022-11-20T10:18:58;26.57;;;9.57;;
69310;SDS011;56430;48.154;16.458;2022-11-20T10:21:35;25.60;;;10.80;;
69310;SDS011;56430;48.154;16.458;2022-11-20T10:24:15;31.55;;;11.32;;
69310;SDS011;56430;48.154;16.458;2022-11-20T10:27:03;29.23;;;11.65;;
69310;SDS011;56430;48.154;16.458;2022-11-20T10:29:36;31.63;;;12.23;;
69310;SDS011;56430;48.154;16.458;2022-11-20T10:32:06;32.40;;;12.07;;
69310;SDS011;56430;48.154;16.458;2022-11-20T10:34:38;29.35;;;10.23;;
69310;SDS011;56430;48.154;16.458;2022-11-20T10:37:16;26.92;;;10.48;;
69310;SDS011;56430;48.154;16.458;2022-11-20T10:39:47;31.58;;;12.07;;
69310;SDS011;56430;48.154;16.458;2022-11-20T10:42:20;29.98;;;11.82;;
69310;SDS011;56430;48.154;16.458;2022-11-20T10:44:57;30.53;;;11.80;;
69310;SDS011;56430;48.154;16.458;2022-11-20T10:47:30;28.58;;;10.13;;
69310;SDS011;56430;48.154;16.458;2022-11-20T10:50:00;23.30;;;9.52;;
69310;SDS011;56430;48.154;16.458;2022-11-20T10:52:32;29.60;;;11.20;;
69310;SDS011;56430;48.154;16.458;2022-11-20T10:55:06;30.27;;;11.18;;
69310;SDS011;56430;48.154;16.458;2022-11-20T10:57:49;27.73;;;10.10;;
69310;SDS011;56430;48.154;16.458;2022-11-20T11:00:20;26.50;;;9.60;;
69310;SDS011;56430;48.154;16.458;2022-11-20T11:02:47;25.33;;;10.73;;
69310;SDS011;56430;48.154;16.458;2022-11-20T11:05:22;25.35;;;9.77;;
69310;SDS011;56430;48.154;16.458;2022-11-20T11:07:56;28.33;;;9.75;;
69310;SDS011;56430;48.154;16.458;2022-11-20T11:10:24;27.10;;;11.20;;
69310;SDS011;56430;48.154;16.458;2022-11-20T11:12:54;26.83;;;10.90;;
69310;SDS011;56430;48.154;16.458;2022-11-20T11:15:25;28.38;;;9.95;;
69310;SDS011;56430;48.154;16.458;2022-11-20T11:17:54;29.05;;;10.73;;
69310;SDS011;56430;48.154;16.458;2022-11-20T11:20:23;25.55;;;10.20;;
69310;SDS011;56430;48.154;16.458;2022-11-20T11:22:51;25.80;;;10.63;;
69310;SDS011;56430;48.154;16.458;2022-11-20T11:25:26;24.90;;;10.35;;
69310;SDS011;56430;48.154;16.458;2022-11-20T11:27:56;27.20;;;10.95;;
69310;SDS011;56430;48.154;16.458;2022-11-20T11:30:25;26.08;;;10.75;;
69310;SDS011;56430;48.154;16.458;2022-11-20T11:33:03;29.63;;;11.07;;
69310;SDS011;56430;48.154;16.458;2022-11-20T11:35:33;26.20;;;11.13;;
69310;SDS011;56430;48.154;16.458;2022-11-20T11:38:03;29.70;;;11.32;;
69310;SDS011;56430;48.154;16.458;2022-11-20T11:40:34;27.17;;;10.05;;
69310;SDS011;56430;48.154;16.458;2022-11-20T11:43:04;28.35;;;10.82;;
69310;SDS011;56430;48.154;16.458;2022-11-20T11:45:54;28.42;;;10.63;;
69310;SDS011;56430;48.154;16.458;2022-11-20T11:48:20;26.53;;;10.30;;
69310;SDS011;56430;48.154;16.458;2022-11-20T11:50:48;30.77;;;11.63;;
69310;SDS011;56430;48.154;16.458;2022-11-20T11:53:16;29.25;;;11.63;;
69310;SDS011;56430;48.154;16.458;2022-11-20T11:55:46;27.23;;;11.02;;
69310;SDS011;56430;48.154;16.458;2022-11-20T12:01:12;30.13;;;11.03;;
69310;SDS011;56430;48.154;16.458;2022-11-20T12:03:51;27.15;;;10.95;;
69310;SDS011;56430;48.154;16.458;2022-11-20T12:06:20;25.25;;;10.32;;
69310;SDS011;56430;48.154;16.458;2022-11-20T12:08:48;28.77;;;10.77;;
69310;SDS011;56430;48.154;16.458;2022-11-20T12:11:20;26.25;;;10.40;;
69310;SDS011;56430;48.154;16.458;2022-11-20T12:13:55;30.00;;;10.43;;
69310;SDS011;56430;48.154;16.458;2022-11-20T12:16:27;25.83;;;10.27;;
69310;SDS011;56430;48.154;16.458;2022-11-20T12:18:55;26.60;;;10.98;;
69310;SDS011;56430;48.154;16.458;2022-11-20T12:21:26;28.30;;;10.57;;
69310;SDS011;56430;48.154;16.458;2022-11-20T12:24:09;27.20;;;11.70;;
69310;SDS011;56430;48.154;16.458;2022-11-20T12:26:53;24.47;;;10.20;;
69310;SDS011;56430;48.154;16.458;2022-11-20T12:29:29;27.80;;;11.45;;
69310;SDS011;56430;48.154;16.458;2022-11-20T12:32:10;27.33;;;10.88;;
69310;SDS011;56430;48.154;16.458;2022-11-20T12:34:56;23.35;;;10.30;;
69310;SDS011;56430;48.154;16.458;2022-11-20T12:37:31;26.88;;;10.55;;
69310;SDS011;56430;48.154;16.458;2022-11-20T12:40:06;28.20;;;11.90;;
69310;SDS011;56430;48.154;16.458;2022-11-20T12:42:48;25.08;;;11.13;;
69310;SDS011;56430;48.154;16.458;2022-11-20T12:45:43;27.27;;;11.45;;
69310;SDS011;56430;48.154;16.458;2022-11-20T12:48:27;25.13;;;11.40;;
69310;SDS011;56430;48.154;16.458;2022-11-20T12:51:14;26.25;;;10.30;;
69310;SDS011;56430;48.154;16.458;2022-11-20T12:54:01;25.13;;;10.73;;
69310;SDS011;56430;48.154;16.458;2022-11-20T12:56:40;25.27;;;9.70;;
69310;SDS011;56430;48.154;16.458;2022-11-20T12:59:19;23.85;;;10.70;;
69310;SDS011;56430;48.154;16.458;2022-11-20T13:01:56;23.67;;;9.45;;
69310;SDS011;56430;48.154;16.458;2022-11-20T13:04:40;25.50;;;10.18;;
69310;SDS011;56430;48.154;16.458;2022-11-20T13:07:13;25.67;;;10.77;;
69310;SDS011;56430;48.154;16.458;2022-11-20T13:09:43;27.42;;;11.45;;
69310;SDS011;56430;48.154;16.458;2022-11-20T13:12:13;27.00;;;10.07;;
69310;SDS011;56430;48.154;16.458;2022-11-20T13:14:47;26.88;;;10.77;;
69310;SDS011;56430;48.154;16.458;2022-11-20T13:17:20;25.42;;;10.93;;
69310;SDS011;56430;48.154;16.458;2022-11-20T13:19:54;22.27;;;9.80;;
69310;SDS011;56430;48.154;16.458;2022-11-20T13:22:24;27.80;;;10.45;;
69310;SDS011;56430;48.154;16.458;2022-11-20T13:24:55;26.33;;;10.73;;
69310;SDS011;56430;48.154;16.458;2022-11-20T13:27:23;24.08;;;10.25;;
69310;SDS011;56430;48.154;16.458;2022-11-20T13:30:03;26.63;;;10.27;;
69310;SDS011;56430;48.154;16.458;2022-11-20T13:32:52;25.70;;;10.87;;
69310;SDS011;56430;48.154;16.458;2022-11-20T13:35:28;23.92;;;10.73;;
69310;SDS011;56430;48.154;16.458;2022-11-20T13:38:05;24.70;;;9.82;;
69310;SDS011;56430;48.154;16.458;2022-11-20T13:40:34;25.67;;;10.70;;
69310;SDS011;56430;48.154;16.458;2022-11-20T13:43:07;22.50;;;9.70;;
69310;SDS011;56430;48.154;16.458;2022-11-20T13:45:53;23.47;;;9.63;;
69310;SDS011;56430;48.154;16.458;2022-11-20T13:48:25;24.90;;;10.15;;
69310;SDS011;56430;48.154;16.458;2022-11-20T13:51:02;25.27;;;10.30;;
69310;SDS011;56430;48.154;16.458;2022-11-20T13:53:42;23.95;;;10.18;;
69310;SDS011;56430;48.154;16.458;2022-11-20T13:56:32;23.27;;;9.88;;
69310;SDS011;56430;48.154;16.458;2022-11-20T13:59:07;26.77;;;10.37;;
69310;SDS011;56430;48.154;16.458;2022-11-20T14:01:39;27.83;;;10.63;;
69310;SDS011;56430;48.154;16.458;2022-11-20T14:04:08;23.80;;;10.80;;
69310;SDS011;56430;48.154;16.458;2022-11-20T14:06:39;24.83;;;10.15;;
69310;SDS011;56430;48.154;16.458;2022-11-20T14:09:10;24.95;;;10.27;;
69310;SDS011;56430;48.154;16.458;2022-11-20T14:11:45;28.17;;;11.17;;
69310;SDS011;56430;48.154;16.458;2022-11-20T14:14:13;23.33;;;9.95;;
69310;SDS011;56430;48.154;16.458;2022-11-20T14:16:45;24.10;;;10.35;;
69310;SDS011;56430;48.154;16.458;2022-11-20T14:19:20;25.42;;;10.55;;
69310;SDS011;56430;48.154;16.458;2022-11-20T14:21:53;24.88;;;10.77;;
69310;SDS011;56430;48.154;16.458;2022-11-20T14:24:22;26.43;;;10.93;;
69310;SDS011;56430;48.154;16.458;2022-11-20T14:26:51;26.35;;;10.48;;
69310;SDS011;56430;48.154;16.458;2022-11-20T14:29:21;24.63;;;10.00;;
69310;SDS011;56430;48.154;16.458;2022-11-20T14:31:52;25.70;;;10.40;;
69310;SDS011;56430;48.154;16.458;2022-11-20T14:34:24;25.90;;;11.02;;
69310;SDS011;56430;48.154;16.458;2022-11-20T14:36:54;26.80;;;11.17;;
69310;SDS011;56430;48.154;16.458;2022-11-20T14:39:26;27.20;;;10.60;;
69310;SDS011;56430;48.154;16.458;2022-11-20T14:42:01;27.95;;;10.75;;